Colstrip, MT

8:55 PM MDT on August 26, 2016 (GMT -0600)
Water Plant | | Change Station

Elev 3255 ft 45.89 °N, 106.63 °W | Updated 3 minutes ago

Partly Cloudy
Partly Cloudy
62.3 °F
Feels Like 62.3 °F
N
0.0
Wind Variable Wind from NE
Gusts 1.0 mph

Today
High -- | Low -- °F
--% Chance of Precip.
Yesterday
High -- | Low -- °F
Precip. -- in
Pressure 29.94 in
Visibility 10.0 miles
Clouds Few 11000 ft
Dew Point 42 °F
Humidity 47%
Rainfall 0.00 in
Snow Depth Not available.
6:20 AM 7:54 PM
Waning Crescent, 29% visible
METAR KMLS 270253Z AUTO 07007KT 10SM FEW110 18/06 A2996 RMK AO2 SLP136 60000 T01830056 50004
Pressure 29.94 in
Visibility 10.0 miles
Clouds Few 11000 ft
Dew Point 42 °F
Humidity 47%
Rainfall 0.00 in
Snow Depth Not available.
6:20 AM 7:54 PM
Waning Crescent, 29% visible
METAR KMLS 270253Z AUTO 07007KT 10SM FEW110 18/06 A2996 RMK AO2 SLP136 60000 T01830056 50004

10-Day Weather Forecast

Almanac

Astronomy

Aug. 26, 2016 Rise Set
Actual Time
Civil Twilight
Nautical Twilight
Astronomical Twilight
Moon
Length of Visible Light
Length of Day
Tomorrow will be .
, % of the Moon is Illuminated

Today's Extremes

State Highs State Lows

Community

WunderPhotos

Upload Photos

1,935,281 photos uploaded!

WunderBlog® & News

Nearby

Air Quality

  Air Quality AQ Index Pollutant
Not available.

Snow Depth

Station Depth Elevation

Earthquake Activity

City Distance Mag. Time & Date
Minimum magnitude displayed is 2.5.

Coastal Water Temperatures

Place Temperature

Stations

Nearby Weather Stations

Station Location Temp. Windchill Dew Point Humidity Wind Precip. Elev Updated Type
                   

Watches & Warnings

There are currently no watches in effect.